createdAt,value
2016-03-11T00:00:11.818Z,99.39
2016-03-11T00:01:11.851Z,99.48
2016-03-11T00:03:39.748Z,99.29
2016-03-11T00:04:27.031Z,98.63
2016-03-11T00:05:46.270Z,98.91
2016-03-11T00:06:33.334Z,98.72
2016-03-11T00:07:52.758Z,98.54
2016-03-11T00:08:33.355Z,98.54
2016-03-11T00:10:48.595Z,98.54
2016-03-11T00:11:42.286Z,97.97
2016-03-11T00:13:01.523Z,97.4
2016-03-11T00:13:42.322Z,97.59
2016-03-11T00:15:07.997Z,97.68
2016-03-11T00:15:51.875Z,97.49
2016-03-11T00:17:17.349Z,97.78
2016-03-11T00:18:01.224Z,97.78
2016-03-11T00:19:01.241Z,97.68
2016-03-11T00:20:01.244Z,97.49
2016-03-11T00:21:01.278Z,97.4
2016-03-11T00:22:01.266Z,97.02
2016-03-11T00:23:14.065Z,97.3
2016-03-11T00:24:01.318Z,96.92
2016-03-11T00:25:01.321Z,97.11
2016-03-11T00:26:07.604Z,97.02
2016-03-11T00:27:01.560Z,97.11
2016-03-11T00:28:01.376Z,97.02
2016-03-11T00:29:14.112Z,97.78
2016-03-11T00:30:01.412Z,96.73
2016-03-11T00:31:01.462Z,97.02
2016-03-11T00:32:01.432Z,97.49
2016-03-11T00:33:01.435Z,97.21
2016-03-11T00:34:01.454Z,96.92
2016-03-11T00:35:01.472Z,96.92
2016-03-11T00:36:01.491Z,97.11
2016-03-11T00:37:01.494Z,96.83
2016-03-11T00:38:01.731Z,96.83
2016-03-11T00:39:01.531Z,96.64
2016-03-11T00:40:01.564Z,96.83
2016-03-11T00:41:07.832Z,96.83
2016-03-11T00:42:01.585Z,96.45
2016-03-11T00:43:20.794Z,97.02
2016-03-11T00:44:01.700Z,96.73
2016-03-11T00:45:01.625Z,96.55
2016-03-11T00:46:14.361Z,96.69
2016-03-11T00:47:01.630Z,96.64
2016-03-11T00:48:01.664Z,96.64
2016-03-11T00:49:01.666Z,96.45
2016-03-11T00:50:07.997Z,96.26
2016-03-11T00:51:01.719Z,96.45
2016-03-11T00:52:01.706Z,96.45
2016-03-11T00:53:01.725Z,96.36
2016-03-11T00:54:01.743Z,96.12
2016-03-11T00:55:14.527Z,96.45
2016-03-11T00:56:08.045Z,96.4
2016-03-11T00:57:01.798Z,95.83
2016-03-11T00:58:01.785Z,96.07
2016-03-11T00:59:02.006Z,95.83
2016-03-11T01:00:01.853Z,96.17
2016-03-11T01:01:01.871Z,96.64
2016-03-11T01:02:01.858Z,95.74
2016-03-11T01:03:01.877Z,96.36
2016-03-11T01:04:02.520Z,96.21
2016-03-11T01:05:08.163Z,95.83
2016-03-11T01:06:01.932Z,96.02
2016-03-11T01:07:01.934Z,95.98
2016-03-11T01:08:01.968Z,95.98
2016-03-11T01:09:01.955Z,96.07
2016-03-11T01:10:01.989Z,95.98
2016-03-11T01:11:02.007Z,96.36
2016-03-11T01:12:02.010Z,96.36
2016-03-11T01:13:02.012Z,95.93
2016-03-11T01:14:02.625Z,95.88
2016-03-11T01:15:02.253Z,95.98
2016-03-11T01:16:02.115Z,95.88
2016-03-11T01:17:02.695Z,95.88
2016-03-11T01:18:02.104Z,95.83
2016-03-11T01:19:14.857Z,95.79
2016-03-11T01:20:02.110Z,95.88
2016-03-11T01:21:21.332Z,95.98
2016-03-11T01:22:14.881Z,95.6
2016-03-11T01:23:02.149Z,95.6
2016-03-11T01:24:02.167Z,95.6
2016-03-11T01:25:02.201Z,95.5
2016-03-11T01:26:27.861Z,95.88
2016-03-11T01:27:14.489Z,95.6
2016-03-11T01:28:33.539Z,95.88
2016-03-11T01:29:02.306Z,95.88
2016-03-11T01:30:02.278Z,95.41
2016-03-11T01:31:02.281Z,95.12
2016-03-11T01:32:02.314Z,94.56
2016-03-11T01:33:02.302Z,94.84
2016-03-11T01:34:21.508Z,95.12
2016-03-11T01:35:02.932Z,94.84
2016-03-11T01:36:28.122Z,95.31
2016-03-11T01:37:02.359Z,95.22
2016-03-11T01:38:33.690Z,95.41
2016-03-11T01:39:17.647Z,95.12
2016-03-11T01:40:17.649Z,95.41
2016-03-11T01:41:17.791Z,95.5
2016-03-11T01:42:23.935Z,94.84
2016-03-11T01:43:30.437Z,95.03
2016-03-11T01:44:17.691Z,94.7
2016-03-11T01:45:17.725Z,94.23
2016-03-11T01:46:17.727Z,94.27
2016-03-11T01:47:17.746Z,94.27
2016-03-11T01:48:17.763Z,93.89
2016-03-11T01:49:17.782Z,93.84
2016-03-11T01:50:30.628Z,94.04
2016-03-11T01:51:17.804Z,94.08
2016-03-11T01:52:37.024Z,94.04
2016-03-11T01:53:17.824Z,93.94
2016-03-11T01:54:17.951Z,93.65
2016-03-11T01:55:17.861Z,93.65
2016-03-11T01:56:19.331Z,93.84
2016-03-11T01:57:24.163Z,93.94
2016-03-11T01:58:17.915Z,93.94
2016-03-11T01:59:17.930Z,93.94
2016-03-11T02:00:17.953Z,94.13
2016-03-11T02:01:18.116Z,94.04
2016-03-11T02:02:30.656Z,93.84
2016-03-11T02:03:30.664Z,93.65
2016-03-11T02:04:43.595Z,94.32
2016-03-11T02:05:27.485Z,94.32
2016-03-11T02:06:53.170Z,94.23
2016-03-11T02:07:49.779Z,94.23
2016-03-11T02:08:49.793Z,94.89
2016-03-11T02:09:49.810Z,94.89
2016-03-11T02:10:51.218Z,94.79
2016-03-11T02:11:49.844Z,94.79
2016-03-11T02:12:49.845Z,94.98
2016-03-11T02:13:49.846Z,94.42
2016-03-11T02:15:09.068Z,94.51
2016-03-11T02:15:49.914Z,94.23
2016-03-11T02:16:49.901Z,93.46
2016-03-11T02:17:49.902Z,93.56
2016-03-11T02:18:49.921Z,93.94
2016-03-11T02:19:49.939Z,93.65
2016-03-11T02:20:56.208Z,94.23
2016-03-11T02:21:56.241Z,94.04
2016-03-11T02:22:49.963Z,94.7
2016-03-11T02:24:02.732Z,94.23
2016-03-11T02:24:50.016Z,94.6
2016-03-11T02:26:09.268Z,93.94
2016-03-11T02:26:50.036Z,93.75
2016-03-11T02:29:05.229Z,93.94
2016-03-11T02:30:05.279Z,94.51
2016-03-11T02:31:05.234Z,94.32
2016-03-11T02:32:05.284Z,94.42
2016-03-11T02:33:05.302Z,94.89
2016-03-11T02:34:05.399Z,94.89
2016-03-11T02:35:05.307Z,94.51
2016-03-11T02:36:05.310Z,94.7
2016-03-11T02:37:05.344Z,94.98
2016-03-11T02:38:05.348Z,95.17
2016-03-11T02:39:05.350Z,95.26
2016-03-11T02:40:05.368Z,95.17
2016-03-11T02:41:05.387Z,94.89
2016-03-11T02:42:05.405Z,94.7
2016-03-11T02:43:18.189Z,94.7
2016-03-11T02:44:05.442Z,94.79
2016-03-11T02:45:05.445Z,94.42
2016-03-11T02:46:04.962Z,94.32
2016-03-11T02:47:05.481Z,94.32
2016-03-11T02:48:05.499Z,94.42
2016-03-11T02:49:18.470Z,94.13
2016-03-11T02:50:05.520Z,94.51
2016-03-11T02:51:05.585Z,94.32
2016-03-11T02:52:08.682Z,94.04
2016-03-11T02:53:08.699Z,93.84
2016-03-11T02:54:08.812Z,94.32
2016-03-11T02:55:08.721Z,93.65
2016-03-11T02:56:15.068Z,94.6
2016-03-11T02:57:08.945Z,93.75
2016-03-11T02:58:08.854Z,94.32
2016-03-11T02:59:27.982Z,94.32
2016-03-11T03:00:08.812Z,94.42
2016-03-11T03:01:08.800Z,94.79
2016-03-11T03:02:08.834Z,95.17
2016-03-11T03:03:08.837Z,94.42
2016-03-11T03:04:08.854Z,94.23
2016-03-11T03:05:08.872Z,94.13
2016-03-11T03:06:15.469Z,93.94
2016-03-11T03:07:08.893Z,94.13
2016-03-11T03:08:08.912Z,93.84
2016-03-11T03:09:15.181Z,93.75
2016-03-11T03:10:08.948Z,94.51
2016-03-11T03:11:08.951Z,94.42
2016-03-11T03:12:10.392Z,94.32
2016-03-11T03:13:09.019Z,94.98
2016-03-11T03:14:08.991Z,94.79
2016-03-11T03:15:08.994Z,94.6
2016-03-11T03:16:09.011Z,94.6
2016-03-11T03:17:15.295Z,94.79
2016-03-11T03:18:09.047Z,94.7
2016-03-11T03:19:09.036Z,94.7
2016-03-11T03:20:09.086Z,94.89
2016-03-11T03:21:09.088Z,94.89
2016-03-11T03:22:15.372Z,94.42
2016-03-11T03:23:10.046Z,94.23
2016-03-11T03:24:21.861Z,94.7
2016-03-11T03:25:09.146Z,94.32
2016-03-11T03:26:09.180Z,94.04
2016-03-11T03:27:09.151Z,94.04
2016-03-11T03:28:09.388Z,93.84
2016-03-11T03:29:09.235Z,94.04
2016-03-11T03:30:09.221Z,93.84
2016-03-11T03:31:09.832Z,94.04
2016-03-11T03:32:09.227Z,93.75
2016-03-11T03:33:09.260Z,94.04
2016-03-11T03:34:09.873Z,93.65
2016-03-11T03:35:09.281Z,93.75
2016-03-11T03:36:22.019Z,94.13
2016-03-11T03:37:09.334Z,94.32
2016-03-11T03:38:09.321Z,93.75
2016-03-11T03:39:09.949Z,93.94
2016-03-11T03:40:09.342Z,94.42
2016-03-11T03:41:22.095Z,94.13
2016-03-11T03:42:09.395Z,93.56
2016-03-11T03:43:09.444Z,94.13
2016-03-11T03:44:09.415Z,93.18
2016-03-11T03:45:22.153Z,94.13
2016-03-11T03:46:09.452Z,93.75
2016-03-11T03:47:09.455Z,93.56
2016-03-11T03:48:22.222Z,92.71
2016-03-11T03:49:09.475Z,92.8
2016-03-11T03:50:35.166Z,92.8
2016-03-11T03:51:09.497Z,92.9
2016-03-11T03:53:15.814Z,92.8
2016-03-11T03:54:09.644Z,92.8
2016-03-11T03:55:28.772Z,92.9
2016-03-11T03:56:12.760Z,93.08
2016-03-11T03:57:31.997Z,92.9
2016-03-11T03:58:12.780Z,92.71
2016-03-11T03:59:12.799Z,93.18
2016-03-11T04:00:25.536Z,92.8
2016-03-11T04:01:12.961Z,92.9
2016-03-11T04:02:13.558Z,93.08
2016-03-11T04:03:12.966Z,92.43
2016-03-11T04:04:25.609Z,92.33
2016-03-11T04:05:25.629Z,92.24
2016-03-11T04:06:12.896Z,92.43
2016-03-11T04:07:32.180Z,92.14
2016-03-11T04:08:12.917Z,91.95
2016-03-11T04:09:38.623Z,91.48
2016-03-11T04:10:12.954Z,91.76
2016-03-11T04:11:12.972Z,90.91
2016-03-11T04:12:25.725Z,91.86
2016-03-11T04:13:12.993Z,91.86
2016-03-11T04:14:13.027Z,92.33
2016-03-11T04:15:25.764Z,93.08
2016-03-11T04:16:13.048Z,93.84
2016-03-11T04:17:38.738Z,93.99
2016-03-11T04:18:22.617Z,94.27
2016-03-11T04:19:22.619Z,94.65
2016-03-11T04:20:29.153Z,95.03
2016-03-11T04:21:23.249Z,95.97
2016-03-11T04:22:23.017Z,95.97
2016-03-11T04:23:24.098Z,96.64
2016-03-11T04:24:22.758Z,96.92
2016-03-11T04:25:35.432Z,97.2
2016-03-11T04:26:22.731Z,97.58
2016-03-11T04:27:41.937Z,97.63
2016-03-11T04:28:22.799Z,97.82
2016-03-11T04:29:54.071Z,98.48
2016-03-11T04:30:22.774Z,98.2
2016-03-11T04:31:22.823Z,98.39
2016-03-11T04:32:22.794Z,98.39
2016-03-11T04:33:32.422Z,98.67
2016-03-11T04:34:32.457Z,99.05
2016-03-11T04:35:32.474Z,99.71
2016-03-11T04:37:03.792Z,99.52
2016-03-11T04:37:32.479Z,99.99
2016-03-11T04:38:32.748Z,99.99
2016-03-11T04:39:32.516Z,99.99
2016-03-11T04:40:32.518Z,99.99
2016-03-11T04:41:45.287Z,99.99
2016-03-11T04:42:45.289Z,99.99
2016-03-11T04:43:51.761Z,99.99
2016-03-11T04:44:51.779Z,99.99
2016-03-11T04:45:32.595Z,99.99
2016-03-11T04:46:32.660Z,99.99
2016-03-11T04:47:45.367Z,99.99
2016-03-11T04:48:33.244Z,99.99
2016-03-11T04:49:58.328Z,99.99
2016-03-11T04:50:33.265Z,99.99
2016-03-11T04:51:32.689Z,99.99
2016-03-11T04:52:54.961Z,99.99
2016-03-11T04:53:42.289Z,99.99
2016-03-11T04:54:42.291Z,99.99
2016-03-11T04:55:42.278Z,99.99
2016-03-11T04:56:43.687Z,99.99
2016-03-11T04:57:42.299Z,99.99
2016-03-11T04:59:01.508Z,99.99
2016-03-11T04:59:42.305Z,99.99
2016-03-11T05:00:42.354Z,99.99
2016-03-11T05:01:48.621Z,99.99
2016-03-11T05:02:43.766Z,99.99
2016-03-11T05:03:43.799Z,99.99
2016-03-11T05:04:45.458Z,99.99
2016-03-11T05:05:55.136Z,99.99
2016-03-11T05:06:46.642Z,99.99
2016-03-11T05:07:42.660Z,99.99
2016-03-11T05:08:42.413Z,99.99
2016-03-11T05:09:42.447Z,99.99
2016-03-11T05:10:42.496Z,99.99
2016-03-11T05:11:42.468Z,99.99
2016-03-11T05:12:42.485Z,99.99
2016-03-11T05:13:42.504Z,99.99
2016-03-11T05:14:42.506Z,99.99
2016-03-11T05:15:43.338Z,99.99
2016-03-11T05:16:42.965Z,99.99
2016-03-11T05:17:42.796Z,99.99
2016-03-11T05:18:43.174Z,99.99
2016-03-11T05:19:42.661Z,99.99
2016-03-11T05:20:42.585Z,99.99
2016-03-11T05:21:42.634Z,99.99
2016-03-11T05:22:42.622Z,99.99
2016-03-11T05:23:42.672Z,99.99
2016-03-11T05:24:42.628Z,99.99
2016-03-11T05:25:42.958Z,99.99
2016-03-11T05:27:01.933Z,99.99
2016-03-11T05:27:45.933Z,99.99
2016-03-11T05:29:11.797Z,99.99
2016-03-11T05:29:46.266Z,99.99
2016-03-11T05:30:46.128Z,99.99
2016-03-11T05:31:46.130Z,99.99
2016-03-11T05:32:46.368Z,99.99
2016-03-11T05:34:05.233Z,99.99
2016-03-11T05:34:46.108Z,99.99
2016-03-11T05:35:46.016Z,99.99
2016-03-11T05:36:52.269Z,99.99
2016-03-11T05:37:45.975Z,99.99
2016-03-11T05:39:05.215Z,99.99
2016-03-11T05:39:45.996Z,99.99
2016-03-11T05:40:46.060Z,99.99
2016-03-11T05:41:46.142Z,99.99
2016-03-11T05:42:46.035Z,99.99
2016-03-11T05:43:46.366Z,99.99
2016-03-11T05:45:05.262Z,99.99
2016-03-11T05:45:46.246Z,99.99
2016-03-11T05:46:46.093Z,99.99
2016-03-11T05:47:46.267Z,99.99
2016-03-11T05:48:46.099Z,99.99
2016-03-11T05:49:46.257Z,99.99
2016-03-11T05:50:46.135Z,99.99
2016-03-11T05:51:46.278Z,99.99
2016-03-11T05:53:11.846Z,99.99
2016-03-11T05:53:46.268Z,99.99
2016-03-11T05:56:01.822Z,99.99
2016-03-11T05:57:01.826Z,99.99
2016-03-11T05:58:14.594Z,99.99
2016-03-11T05:59:01.847Z,99.99
2016-03-11T06:00:21.083Z,99.99
2016-03-11T06:01:05.227Z,99.99
2016-03-11T06:02:04.980Z,99.99
2016-03-11T06:03:04.998Z,99.99
2016-03-11T06:04:05.016Z,99.99
2016-03-11T06:05:05.003Z,99.99
2016-03-11T06:06:05.038Z,99.99
2016-03-11T06:07:05.072Z,99.99
2016-03-11T06:08:05.058Z,99.99
2016-03-11T06:09:05.061Z,99.99
2016-03-11T06:10:05.313Z,99.99
2016-03-11T06:11:05.097Z,99.99
2016-03-11T06:12:24.319Z,99.99
2016-03-11T06:13:08.399Z,99.99
2016-03-11T06:14:33.872Z,99.99
2016-03-11T06:15:12.108Z,99.99
2016-03-11T06:16:12.127Z,99.99
2016-03-11T06:17:12.207Z,99.99
2016-03-11T06:18:12.366Z,99.99
2016-03-11T06:19:12.165Z,99.99
2016-03-11T06:20:24.903Z,99.99
2016-03-11T06:21:12.296Z,99.99
2016-03-11T06:22:12.221Z,99.99
2016-03-11T06:23:12.412Z,99.99
2016-03-11T06:24:12.257Z,99.99
2016-03-11T06:25:12.229Z,99.99
2016-03-11T06:26:31.466Z,99.99
2016-03-11T06:27:18.390Z,99.99
2016-03-11T06:28:15.378Z,99.99
2016-03-11T06:29:15.395Z,99.99
2016-03-11T06:30:15.492Z,99.99
2016-03-11T06:31:15.433Z,99.99
2016-03-11T06:32:15.483Z,99.99
2016-03-11T06:33:28.188Z,99.48
2016-03-11T06:34:15.488Z,98.91
2016-03-11T06:35:15.458Z,98.34
2016-03-11T06:36:15.336Z,98.01
2016-03-11T06:37:15.496Z,96.88
2016-03-11T06:38:15.952Z,95.45
2016-03-11T06:39:15.922Z,94.37
2016-03-11T06:40:15.566Z,93.32
2016-03-11T06:41:15.538Z,90.95
2016-03-11T06:42:15.555Z,91.33
2016-03-11T06:43:16.012Z,90.1
2016-03-11T06:44:28.373Z,89.01
2016-03-11T06:45:28.360Z,86.55
2016-03-11T06:46:35.066Z,85.69
2016-03-11T06:47:15.757Z,85.6
2016-03-11T06:48:15.650Z,84.65
2016-03-11T06:49:15.668Z,82.66
2016-03-11T06:50:15.670Z,80.52
2016-03-11T06:51:15.736Z,80.14
2016-03-11T06:52:15.692Z,78.72
2016-03-11T06:53:15.710Z,78.05
2016-03-11T06:54:21.995Z,77.39
2016-03-11T06:55:16.466Z,76.76
2016-03-11T06:56:16.000Z,77.11
2016-03-11T06:57:28.534Z,76.82
2016-03-11T06:58:15.787Z,76.44
2016-03-11T06:59:28.571Z,76.48
2016-03-11T07:00:16.511Z,74.96
2016-03-11T07:01:35.045Z,73.44
2016-03-11T07:02:16.500Z,73.07
2016-03-11T07:03:47.206Z,72.25
2016-03-11T07:04:25.739Z,71.58
2016-03-11T07:06:40.980Z,72.06
2016-03-11T07:07:40.983Z,72.49
2016-03-11T07:08:41.610Z,74.58
2016-03-11T07:09:41.253Z,75.96
2016-03-11T07:11:00.493Z,76.34
2016-03-11T07:11:41.649Z,77.01
2016-03-11T07:12:41.308Z,77.96
2016-03-11T07:13:42.514Z,80
2016-03-11T07:14:41.142Z,79.91
2016-03-11T07:15:53.913Z,79.91
2016-03-11T07:16:41.132Z,79.44
2016-03-11T07:18:00.435Z,78.72
2016-03-11T07:18:44.403Z,77.29
2016-03-11T07:20:03.627Z,76.34
2016-03-11T07:20:47.549Z,74.39
2016-03-11T07:22:06.773Z,74.11
2016-03-11T07:22:47.679Z,73.44
2016-03-11T07:23:47.666Z,72.78
2016-03-11T07:24:47.841Z,73.54
2016-03-11T07:26:18.956Z,73.07
2016-03-11T07:27:02.817Z,72.68
2016-03-11T07:28:02.851Z,72.21
2016-03-11T07:29:02.854Z,72.02
2016-03-11T07:30:15.607Z,71.77
2016-03-11T07:31:04.312Z,70.92
2016-03-11T07:32:15.675Z,70.35
2016-03-11T07:33:03.022Z,70.73
2016-03-11T07:34:22.149Z,71.2
2016-03-11T07:35:15.792Z,70.63
2016-03-11T07:36:28.654Z,70.06
2016-03-11T07:37:28.657Z,69.78
2016-03-11T07:38:29.285Z,69.4
2016-03-11T07:39:34.584Z,69.96
2016-03-11T07:40:44.149Z,71.01
2016-03-11T07:41:44.152Z,72.02
2016-03-11T07:42:53.939Z,73.92
2016-03-11T07:43:54.176Z,74.92
2016-03-11T07:45:09.335Z,76.82
2016-03-11T07:46:09.369Z,78.24
2016-03-11T07:47:15.699Z,79.15
2016-03-11T07:48:09.608Z,80.29
2016-03-11T07:49:09.407Z,79.72
2016-03-11T07:50:22.161Z,79.72
2016-03-11T07:51:28.663Z,79.91
2016-03-11T07:52:28.666Z,79.82
2016-03-11T07:54:44.718Z,80
2016-03-11T07:55:44.751Z,79.25
2016-03-11T07:56:57.476Z,79.63
2016-03-11T07:57:44.757Z,79.72
2016-03-11T07:59:03.981Z,79.82
2016-03-11T07:59:47.856Z,79.44
2016-03-11T08:01:13.550Z,79.53
2016-03-11T08:01:57.692Z,80
2016-03-11T08:03:23.384Z,80
2016-03-11T08:03:57.964Z,79.82
2016-03-11T08:04:57.733Z,79.34
2016-03-11T08:05:58.078Z,78.77
2016-03-11T08:06:57.753Z,79.06
2016-03-11T08:08:23.444Z,78.58
2016-03-11T08:09:01.728Z,78.96
2016-03-11T08:10:33.042Z,78.39
2016-03-11T08:11:17.045Z,78.2
2016-03-11T08:12:17.002Z,77.45
2016-03-11T08:13:29.755Z,76.15
2016-03-11T08:14:17.257Z,75.31
2016-03-11T08:15:36.369Z,74.92
2016-03-11T08:16:43.341Z,74.64
2016-03-11T08:17:42.780Z,73.41
2016-03-11T08:18:57.989Z,74.07
2016-03-11T08:19:58.007Z,74.26
2016-03-11T08:20:58.010Z,74.54
2016-03-11T08:21:58.060Z,74.92
2016-03-11T08:22:59.468Z,75.11
2016-03-11T08:24:11.409Z,75.11
2016-03-11T08:24:58.082Z,75.11
2016-03-11T08:27:14.745Z,75.59
2016-03-11T08:28:14.700Z,75.49
2016-03-11T08:29:14.812Z,75.59
2016-03-11T08:30:27.471Z,75.11
2016-03-11T08:31:14.756Z,74.92
2016-03-11T08:32:40.430Z,75.02
2016-03-11T08:33:14.776Z,75.11
2016-03-11T08:35:30.000Z,74.26
2016-03-11T08:36:30.003Z,73.22
2016-03-11T08:37:30.036Z,73.63
2016-03-11T08:38:42.790Z,74.01
2016-03-11T08:39:42.824Z,73.41
2016-03-11T08:40:30.061Z,74.16
2016-03-11T08:41:55.785Z,73.41
2016-03-11T08:43:07.881Z,73.03
2016-03-11T08:46:26.639Z,72.11
2016-03-11T08:47:20.423Z,71.64
2016-03-11T08:48:33.144Z,71.07
2016-03-11T08:49:20.444Z,70.5
2016-03-11T08:50:20.588Z,71.07
2016-03-11T08:51:20.669Z,71.07
2016-03-11T08:52:26.749Z,71.73
2016-03-11T08:53:33.252Z,72.11
2016-03-11T08:54:33.317Z,71.07
2016-03-11T08:55:39.757Z,70.69
2016-03-11T08:56:39.791Z,71.73
2016-03-11T08:58:55.799Z,71.64
2016-03-11T09:00:15.037Z,71.17
2016-03-11T09:00:58.961Z,70.78
2016-03-11T09:01:58.978Z,70.59
2016-03-11T09:02:58.982Z,70.4
2016-03-11T09:04:24.687Z,70.78
2016-03-11T09:05:08.564Z,70.4
2016-03-11T09:06:08.724Z,69.93
2016-03-11T09:07:08.789Z,70.03
2016-03-11T09:08:08.667Z,69.74
2016-03-11T09:09:15.200Z,69.46
2016-03-11T09:10:08.860Z,69.84
2016-03-11T09:11:21.628Z,70.88
2016-03-11T09:12:08.038Z,71.07
2016-03-11T09:13:08.743Z,70.88
2016-03-11T09:14:08.918Z,69.84
2016-03-11T09:15:08.764Z,70.88
2016-03-11T09:16:08.752Z,70.4
2016-03-11T09:17:08.879Z,70.5
2016-03-11T09:18:08.788Z,70.69
2016-03-11T09:19:08.868Z,71.07
2016-03-11T09:20:08.871Z,70.78
2016-03-11T09:21:08.843Z,70.78
2016-03-11T09:22:34.532Z,69.61
2016-03-11T09:23:18.473Z,69.74
2016-03-11T09:24:18.476Z,69.74
2016-03-11T09:25:18.541Z,71.13
2016-03-11T09:26:18.512Z,71.32
2016-03-11T09:27:18.531Z,71.98
2016-03-11T09:28:31.284Z,71.32
2016-03-11T09:29:31.287Z,70.75
2016-03-11T09:30:44.711Z,70.84
2016-03-11T09:31:28.667Z,70.84
2016-03-11T09:32:54.295Z,70.75
2016-03-11T09:33:38.172Z,71.03
2016-03-11T09:34:38.174Z,70.94
2016-03-11T09:35:38.818Z,71.03
2016-03-11T09:36:50.992Z,71.6
2016-03-11T09:37:38.230Z,71.7
2016-03-11T09:39:04.142Z,71.8
2016-03-11T09:39:48.111Z,71.98
2016-03-11T09:40:48.050Z,72.17
2016-03-11T09:41:48.053Z,72.45
2016-03-11T09:43:07.277Z,73.03
2016-03-11T09:43:48.105Z,72.93
2016-03-11T09:45:57.754Z,72.27
2016-03-11T09:46:57.960Z,72.45
2016-03-11T09:48:04.415Z,72.17
2016-03-11T09:48:57.746Z,71.51
2016-03-11T09:50:16.982Z,71.6
2016-03-11T09:51:03.908Z,71.8
2016-03-11T09:52:01.052Z,71.7
2016-03-11T09:53:03.960Z,71.51
2016-03-11T09:54:01.244Z,71.13
2016-03-11T09:55:13.669Z,71.03
2016-03-11T09:56:01.218Z,70.75
2016-03-11T09:57:20.408Z,71.98
2016-03-11T09:58:00.974Z,71.98
2016-03-11T10:00:10.729Z,73.12
2016-03-11T10:01:10.559Z,73.46
2016-03-11T10:02:27.375Z,73.46
2016-03-11T10:03:14.909Z,74.03
2016-03-11T10:04:14.645Z,74.6
2016-03-11T10:06:15.073Z,74.6
2016-03-11T10:07:14.785Z,74.79
2016-03-11T10:08:14.709Z,74.41
2016-03-11T10:09:15.337Z,74.69
2016-03-11T10:10:27.465Z,74.45
2016-03-11T10:11:27.733Z,73.69
2016-03-11T10:12:14.767Z,73.41
2016-03-11T10:13:14.816Z,73.12
2016-03-11T10:14:14.804Z,72.93
2016-03-11T10:15:14.962Z,72.64
2016-03-11T10:16:27.683Z,72.64
2016-03-11T10:17:34.297Z,72.36
2016-03-11T10:18:18.487Z,71.98
2016-03-11T10:19:18.598Z,71.8
2016-03-11T10:20:18.522Z,72.17
2016-03-11T10:21:18.948Z,72.84
2016-03-11T10:22:18.591Z,72.93
2016-03-11T10:23:18.593Z,74.07
2016-03-11T10:24:19.002Z,72.84
2016-03-11T10:25:44.302Z,72.27
2016-03-11T10:26:18.617Z,71.98
2016-03-11T10:27:18.682Z,72.17
2016-03-11T10:28:18.747Z,71.98
2016-03-11T10:29:28.218Z,71.8
2016-03-11T10:30:28.565Z,71.98
2016-03-11T10:31:41.318Z,70.37
2016-03-11T10:32:28.476Z,70.65
2016-03-11T10:34:51.482Z,70.94
2016-03-11T10:35:51.485Z,71.7
2016-03-11T10:36:51.472Z,70.94
2016-03-11T10:37:52.084Z,70.18
2016-03-11T10:38:51.524Z,68.85
2016-03-11T10:39:51.495Z,67.27
2016-03-11T10:40:51.546Z,67.62
2016-03-11T10:41:51.548Z,67.52
2016-03-11T10:43:04.287Z,67.52
2016-03-11T10:43:51.584Z,68.29
2016-03-11T10:45:10.809Z,68.29
2016-03-11T10:46:04.358Z,67.9
2016-03-11T10:46:51.858Z,67.37
2016-03-11T10:47:51.659Z,67.05
2016-03-11T10:48:51.739Z,66.04
2016-03-11T10:49:51.710Z,65.56
2016-03-11T10:50:52.541Z,66.04
2016-03-11T10:51:51.716Z,64.62
2016-03-11T10:52:51.781Z,63.67
2016-03-11T10:53:52.283Z,63.23
2016-03-11T10:55:10.992Z,62.46
2016-03-11T10:55:52.430Z,62.91
2016-03-11T10:57:23.341Z,62.56
2016-03-11T10:58:07.437Z,62.18
2016-03-11T10:59:32.910Z,62.08
2016-03-11T11:00:17.037Z,61.8
2016-03-11T11:01:26.649Z,63.04
2016-03-11T11:02:26.651Z,62.46
2016-03-11T11:03:26.685Z,62.08
2016-03-11T11:04:26.735Z,62.46
2016-03-11T11:05:39.683Z,61.14
2016-03-11T11:08:33.428Z,58.32
2016-03-11T11:09:58.924Z,57.59
2016-03-11T11:12:39.809Z,57.21
2016-03-11T11:13:11.713Z,57.84
2016-03-11T11:15:58.132Z,56.92
2016-03-11T11:16:30.241Z,57.02
2016-03-11T11:18:45.727Z,55.88
2016-03-11T11:19:45.899Z,56.73
2016-03-11T11:20:46.291Z,56.63
2016-03-11T11:21:58.436Z,55.97
2016-03-11T11:22:58.688Z,56.83
2016-03-11T11:23:45.750Z,56.83
2016-03-11T11:24:49.174Z,55.78
2016-03-11T11:26:14.773Z,55.97
2016-03-11T11:26:58.649Z,55.94
2016-03-11T11:27:58.713Z,56.89
2016-03-11T11:28:58.951Z,56.7
2016-03-11T11:29:58.921Z,56.35
2016-03-11T11:31:11.457Z,55.59
2016-03-11T11:32:05.006Z,55.21
2016-03-11T11:33:18.179Z,54.93
2016-03-11T11:34:05.121Z,54.48
2016-03-11T11:35:30.107Z,54.38
2016-03-11T11:36:11.609Z,55.21
2016-03-11T11:38:18.084Z,55.59
2016-03-11T11:38:58.868Z,56.54
2016-03-11T11:40:24.573Z,57.68
2016-03-11T11:41:08.748Z,58.13
2016-03-11T11:42:08.486Z,59.33
2016-03-11T11:43:39.831Z,62.18
2016-03-11T11:44:23.709Z,62.46
2016-03-11T11:45:23.791Z,62.82
2016-03-11T11:47:30.046Z,64.9
2016-03-11T11:48:23.814Z,63.57
2016-03-11T11:49:43.004Z,62.43
2016-03-11T11:50:33.210Z,61.87
2016-03-11T11:51:46.135Z,62.53
2016-03-11T11:52:30.435Z,62.82
2016-03-11T11:53:56.390Z,64.05
2016-03-11T11:54:34.674Z,64.01
2016-03-11T11:56:00.367Z,64.24
2016-03-11T11:56:38.696Z,64.05
2016-03-11T11:58:10.013Z,63.95
2016-03-11T11:58:48.357Z,63.95
2016-03-11T11:59:48.391Z,63.76
2016-03-11T12:00:48.346Z,62.24
2016-03-11T12:01:48.427Z,63.1
2016-03-11T12:03:07.840Z,62.62
2016-03-11T12:03:49.855Z,62.34
2016-03-11T12:06:01.206Z,61.52
2016-03-11T12:06:48.472Z,60.38
2016-03-11T12:08:01.259Z,59.91
2016-03-11T12:09:01.245Z,59.17
2016-03-11T12:09:48.526Z,58.61
2016-03-11T12:11:07.798Z,59.24
2016-03-11T12:11:50.267Z,59.91
2016-03-11T12:13:14.335Z,59.24
2016-03-11T12:13:58.398Z,59.81
2016-03-11T12:15:24.012Z,60
2016-03-11T12:16:07.905Z,58.48
2016-03-11T12:17:17.689Z,59.24
2016-03-11T12:18:43.239Z,59.52
2016-03-11T12:19:27.616Z,59.33
2016-03-11T12:20:27.400Z,58.48
2016-03-11T12:21:28.872Z,58.2
2016-03-11T12:22:46.719Z,58.48
2016-03-11T12:24:27.489Z,58.13
2016-03-11T12:25:27.555Z,58.51
2016-03-11T12:26:53.182Z,57.09
2016-03-11T12:28:02.890Z,55.47
2016-03-11T12:29:02.893Z,55.09
2016-03-11T12:30:02.958Z,55.76
2016-03-11T12:31:02.946Z,55.37
2016-03-11T12:32:15.713Z,55.28
2016-03-11T12:33:03.107Z,53.97
2016-03-11T12:34:22.235Z,53.69
2016-03-11T12:35:03.004Z,54.36
2016-03-11T12:36:03.021Z,54.61
2016-03-11T12:37:09.321Z,54.93
2016-03-11T12:38:34.354Z,55.59
2016-03-11T12:39:18.264Z,55.88
2016-03-11T12:40:18.564Z,55.97
2016-03-11T12:41:18.409Z,55.5
2016-03-11T12:42:18.428Z,56.16
2016-03-11T12:43:31.149Z,57.21
2016-03-11T12:44:18.481Z,56.92
2016-03-11T12:45:44.061Z,56.73
2016-03-11T12:46:24.876Z,56.63
2016-03-11T12:47:18.458Z,57.94
2016-03-11T12:48:18.460Z,58.32
2016-03-11T12:49:18.556Z,58.8
2016-03-11T12:50:31.216Z,57.56
2016-03-11T12:51:18.515Z,56.99
2016-03-11T12:52:20.017Z,57.84
2016-03-11T12:53:18.552Z,57.37
2016-03-11T12:54:21.617Z,57.84
2016-03-11T12:55:20.010Z,58.03
2016-03-11T12:56:44.278Z,58.7
2016-03-11T12:57:31.375Z,58.03
2016-03-11T12:59:18.646Z,58.7
2016-03-11T13:00:18.679Z,59.46
2016-03-11T13:01:37.932Z,59.27
2016-03-11T13:02:18.716Z,59.65
2016-03-11T13:03:44.421Z,57.65
2016-03-11T13:04:31.706Z,57.84
2016-03-11T13:06:18.852Z,58.13
2016-03-11T13:07:19.042Z,58.61
2016-03-11T13:08:18.826Z,58.61
2016-03-11T13:09:31.563Z,59.84
2016-03-11T13:11:18.943Z,60.22
2016-03-11T13:12:19.571Z,60.28
2016-03-11T13:13:19.043Z,60.76
2016-03-11T13:14:31.701Z,61.04
2016-03-11T13:15:19.579Z,60.28
2016-03-11T13:16:18.973Z,60.28
2016-03-11T13:17:19.209Z,60.19
2016-03-11T13:18:19.025Z,60.85
2016-03-11T13:19:19.043Z,60.95
2016-03-11T13:20:19.514Z,60.76
2016-03-11T13:21:19.064Z,60.85
2016-03-11T13:22:19.176Z,59.55
2016-03-11T13:23:19.100Z,58.32
2016-03-11T13:24:19.135Z,56.99
2016-03-11T13:25:19.122Z,55.76
2016-03-11T13:26:19.250Z,56.04
2016-03-11T13:27:25.440Z,55.11
2016-03-11T13:28:19.224Z,54.45
2016-03-11T13:29:38.446Z,55.76
2016-03-11T13:30:19.230Z,55.18
2016-03-11T13:31:19.232Z,55.3
2016-03-11T13:32:19.266Z,55.85
2016-03-11T13:33:19.268Z,54.64
2016-03-11T13:34:19.334Z,54.07
2016-03-11T13:35:19.305Z,53.59
2016-03-11T13:36:32.073Z,53.78
2016-03-11T13:37:19.638Z,53.5
2016-03-11T13:38:19.470Z,53.34